Time;durP1;ratioP1;P1;durP2;ratioP2;P2;SDS_P1;SDS_P2;PMS_P1;PMS_P2;Temp;Humidity;BMP_temperature;BMP_pressure;BME280_temperature;BME280_humidity;BME280_pressure;Samples;Min_cycle;Max_cycle;Signal;HPM_P1;HPM_P2
2021/03/06 00:01:22;;;;;;;15.25;5.50;;;5.20;82.10;;;;;;5108164;27;20246;-78
2021/03/06 00:03:49;;;;;;;18.60;5.43;;;5.20;82.10;;;;;;5107351;28;20197;-76
2021/03/06 00:06:16;;;;;;;21.42;5.20;;;5.10;82.10;;;;;;5109482;27;20685;-78
2021/03/06 00:08:42;;;;;;;11.95;4.90;;;5.10;82.10;;;;;;5107753;28;20209;-78
2021/03/06 00:11:09;;;;;;;14.40;5.47;;;5.00;82.10;;;;;;5105414;27;20325;-78
2021/03/06 00:13:37;;;;;;;17.80;5.32;;;5.00;82.20;;;;;;5108015;27;20677;-79
2021/03/06 00:16:07;;;;;;;16.15;5.82;;;5.00;82.20;;;;;;5104655;28;20301;-77
2021/03/06 00:18:34;;;;;;;15.80;5.45;;;5.00;82.30;;;;;;5107707;28;20570;-77
2021/03/06 00:21:01;;;;;;;12.27;4.90;;;4.90;82.30;;;;;;5105874;28;20213;-77
2021/03/06 00:23:27;;;;;;;15.88;4.97;;;4.90;82.30;;;;;;5116665;27;20292;-77
2021/03/06 00:25:54;;;;;;;14.73;5.28;;;4.90;82.30;;;;;;5106292;28;20674;-79
2021/03/06 00:28:21;;;;;;;14.93;5.03;;;4.90;82.40;;;;;;5103537;28;20197;-78
2021/03/06 00:30:51;;;;;;;11.10;4.68;;;4.80;82.40;;;;;;5106353;27;20240;-78
2021/03/06 00:33:18;;;;;;;17.05;5.15;;;4.80;82.60;;;;;;5103611;28;20731;-79
2021/03/06 00:35:45;;;;;;;14.35;5.03;;;4.70;82.60;;;;;;5105040;28;20293;-78
2021/03/06 00:38:11;;;;;;;16.98;5.28;;;4.70;82.80;;;;;;5104989;28;20272;-78
2021/03/06 00:40:38;;;;;;;16.65;5.22;;;4.70;82.80;;;;;;5117059;27;20606;-78
2021/03/06 00:43:04;;;;;;;16.27;5.30;;;4.70;83.00;;;;;;5105440;28;20224;-78
2021/03/06 00:45:31;;;;;;;12.68;4.72;;;4.70;83.10;;;;;;5103784;28;20208;-77
2021/03/06 00:47:59;;;;;;;12.30;5.32;;;4.60;83.00;;;;;;5107752;28;20750;-78
2021/03/06 00:50:29;;;;;;;17.50;5.10;;;4.60;83.10;;;;;;5100336;28;20299;-78
2021/03/06 00:52:59;;;;;;;18.63;5.03;;;4.60;83.30;;;;;;5105039;28;20325;-78
2021/03/06 00:55:28;;;;;;;14.85;5.07;;;4.50;83.40;;;;;;5098529;28;20212;-78
2021/03/06 00:57:54;;;;;;;11.18;4.70;;;4.50;83.60;;;;;;5104309;28;20753;-78
2021/03/06 01:00:22;;;;;;;13.73;4.82;;;4.50;83.70;;;;;;5105673;28;20228;-78
2021/03/06 01:02:50;;;;;;;16.40;5.30;;;4.50;83.80;;;;;;5105005;28;20230;-78
2021/03/06 01:05:18;;;;;;;18.02;5.55;;;4.50;83.80;;;;;;5103911;28;20204;-78
2021/03/06 01:07:44;;;;;;;16.05;5.60;;;4.40;83.80;;;;;;5119990;27;20197;-78
2021/03/06 01:10:19;;;;;;;19.17;5.85;;;4.40;84.00;;;;;;5106972;28;20303;-78
2021/03/06 01:12:46;;;;;;;13.57;5.10;;;4.40;84.00;;;;;;5105665;28;20775;-77
2021/03/06 01:15:13;;;;;;;13.13;4.60;;;4.40;84.20;;;;;;5106454;28;20209;-78
2021/03/06 01:17:40;;;;;;;11.38;4.45;;;4.40;84.40;;;;;;5105985;28;20277;-79
2021/03/06 01:20:08;;;;;;;18.48;4.90;;;4.40;84.60;;;;;;5104945;28;20220;-78
2021/03/06 01:22:37;;;;;;;13.00;4.75;;;4.40;84.80;;;;;;5105365;28;20201;-78
2021/03/06 01:25:08;;;;;;;11.02;4.32;;;4.40;85.00;;;;;;5105139;28;20275;-80
2021/03/06 01:27:34;;;;;;;15.00;5.20;;;4.40;85.20;;;;;;5120368;27;20653;-79
2021/03/06 01:30:01;;;;;;;11.38;4.93;;;4.40;85.30;;;;;;5106455;28;20690;-77
2021/03/06 01:32:28;;;;;;;18.88;5.28;;;4.40;85.40;;;;;;5106082;28;20197;-77
2021/03/06 01:34:55;;;;;;;17.25;5.15;;;4.30;85.60;;;;;;5104618;28;20292;-78
2021/03/06 01:37:22;;;;;;;16.25;5.68;;;4.30;86.50;;;;;;5103714;28;20201;-77
2021/03/06 01:39:49;;;;;;;14.13;5.40;;;4.30;85.90;;;;;;5104218;28;20650;-79
2021/03/06 01:42:18;;;;;;;18.50;5.45;;;4.30;86.00;;;;;;5107334;28;20211;-78
2021/03/06 01:44:45;;;;;;;17.90;5.00;;;4.30;86.10;;;;;;5106727;28;20204;-77
2021/03/06 01:47:12;;;;;;;15.05;4.57;;;4.30;86.30;;;;;;5103592;28;20567;-79
2021/03/06 01:49:39;;;;;;;18.67;4.85;;;4.30;86.40;;;;;;5103413;28;20216;-77
2021/03/06 01:52:06;;;;;;;14.20;5.00;;;4.20;86.50;;;;;;5104601;28;20227;-78
2021/03/06 01:54:33;;;;;;;12.98;5.53;;;4.20;86.60;;;;;;5105416;28;20212;-77
2021/03/06 01:57:02;;;;;;;12.10;5.38;;;4.20;86.70;;;;;;5103984;28;20209;-79
2021/03/06 01:59:31;;;;;;;12.02;5.40;;;4.20;86.80;;;;;;5103816;28;20198;-78
2021/03/06 02:01:58;;;;;;;18.73;5.47;;;4.10;86.80;;;;;;5103805;28;20228;-78
2021/03/06 02:04:26;;;;;;;16.77;5.50;;;4.10;86.90;;;;;;5106240;28;20219;-78
2021/03/06 02:06:53;;;;;;;16.27;5.32;;;4.10;86.90;;;;;;5105316;28;20295;-77
2021/03/06 02:09:23;;;;;;;13.77;5.47;;;4.10;87.10;;;;;;5108761;28;20220;-77
2021/03/06 02:11:54;;;;;;;16.08;5.07;;;4.00;87.10;;;;;;5105876;27;20705;-78
2021/03/06 02:14:45;;;;;;;14.45;5.18;;;4.00;87.20;;;;;;5108811;27;20205;-77
2021/03/06 02:17:31;;;;;;;14.32;4.90;;;4.00;87.20;;;;;;5111188;28;20209;-78
2021/03/06 02:20:50;;;;;;;18.58;5.03;;;4.00;87.20;;;;;;5110382;28;20195;-77
2021/03/06 02:23:38;;;;;;;13.10;4.68;;;3.90;87.20;;;;;;5007346;28;20218;-78
2021/03/06 02:26:33;;;;;;;17.25;4.97;;;3.90;87.20;;;;;;5111785;28;20660;-78
2021/03/06 02:29:13;;;;;;;17.25;5.00;;;3.90;87.20;;;;;;5106807;28;20615;-78
2021/03/06 02:31:43;;;;;;;14.18;4.80;;;3.90;87.40;;;;;;5108955;27;20673;-79
2021/03/06 02:34:16;;;;;;;13.55;4.78;;;3.80;87.40;;;;;;5109757;28;20201;-78
2021/03/06 02:36:54;;;;;;;10.20;4.97;;;3.80;87.40;;;;;;5110375;28;20197;-78
2021/03/06 02:39:26;;;;;;;15.55;4.53;;;3.80;87.60;;;;;;5104512;27;20221;-77
2021/03/06 02:41:56;;;;;;;17.25;5.43;;;3.70;87.60;;;;;;5108443;28;20639;-77
2021/03/06 02:44:26;;;;;;;18.35;5.47;;;3.70;87.80;;;;;;5105947;27;20665;-77
2021/03/06 02:46:55;;;;;;;13.32;5.30;;;3.70;88.00;;;;;;5107273;27;20209;-79
2021/03/06 02:49:22;;;;;;;16.05;5.25;;;3.70;88.20;;;;;;5107228;28;20221;-77
2021/03/06 02:51:49;;;;;;;14.38;5.05;;;3.70;88.30;;;;;;5110956;28;20337;-79
2021/03/06 02:54:16;;;;;;;11.95;5.15;;;3.70;88.40;;;;;;5110286;28;20644;-77
2021/03/06 02:56:43;;;;;;;13.05;5.35;;;3.70;88.50;;;;;;5112116;28;20201;-78
2021/03/06 02:59:33;;;;;;;12.20;4.88;;;3.70;88.50;;;;;;5108957;28;20276;-77
2021/03/06 03:02:11;;;;;;;14.23;5.13;;;3.60;88.50;;;;;;5108865;28;20228;-79
2021/03/06 03:04:48;;;;;;;14.93;5.43;;;3.60;88.60;;;;;;5109801;28;20205;-79
2021/03/06 03:07:22;;;;;;;17.30;5.32;;;3.60;88.70;;;;;;5110095;28;20734;-77
2021/03/06 03:09:54;;;;;;;13.55;5.10;;;3.60;88.80;;;;;;5108483;28;20708;-77
2021/03/06 03:12:24;;;;;;;14.70;5.32;;;3.50;88.80;;;;;;5110273;28;20231;-78
2021/03/06 03:15:00;;;;;;;16.70;5.65;;;3.50;88.80;;;;;;5111259;28;20225;-78
2021/03/06 03:17:33;;;;;;;18.48;5.55;;;3.50;88.90;;;;;;5109200;27;20220;-79
2021/03/06 03:20:08;;;;;;;12.30;5.45;;;3.50;88.90;;;;;;5107810;28;20193;-78
2021/03/06 03:22:39;;;;;;;12.05;5.50;;;3.40;88.90;;;;;;5106955;28;20683;-78
2021/03/06 03:25:09;;;;;;;12.18;5.32;;;3.40;88.90;;;;;;5106454;28;20198;-78
2021/03/06 03:27:38;;;;;;;13.32;5.25;;;3.30;89.00;;;;;;5110308;28;20201;-78
2021/03/06 03:30:09;;;;;;;14.13;5.10;;;3.30;89.20;;;;;;5108753;28;20278;-78
2021/03/06 03:32:40;;;;;;;12.48;5.28;;;3.30;89.30;;;;;;5109956;28;20200;-79
2021/03/06 03:35:12;;;;;;;18.10;5.38;;;3.20;89.30;;;;;;5110883;28;20225;-78
2021/03/06 03:37:42;;;;;;;12.00;5.30;;;3.20;89.30;;;;;;5112537;28;20207;-77
2021/03/06 03:40:12;;;;;;;17.20;5.95;;;3.20;89.30;;;;;;5109271;28;20186;-79
2021/03/06 03:42:39;;;;;;;19.40;6.13;;;3.20;89.30;;;;;;5110652;28;20209;-80
2021/03/06 03:45:08;;;;;;;16.02;5.60;;;3.20;89.40;;;;;;5109570;27;20197;-77
2021/03/06 03:47:39;;;;;;;15.95;5.70;;;3.20;89.50;;;;;;5109088;28;20201;-77
2021/03/06 03:50:09;;;;;;;15.25;5.88;;;3.20;89.60;;;;;;5107237;28;20217;-79
2021/03/06 03:52:42;;;;;;;16.65;5.38;;;3.20;89.70;;;;;;5121195;27;20204;-76
2021/03/06 03:55:11;;;;;;;14.30;5.78;;;3.20;89.80;;;;;;5110006;28;20197;-77
2021/03/06 03:57:39;;;;;;;14.48;5.45;;;3.20;89.80;;;;;;5117922;27;20220;-77
2021/03/06 04:00:10;;;;;;;18.60;5.68;;;3.20;89.90;;;;;;5107999;28;20258;-77
2021/03/06 04:02:40;;;;;;;14.32;5.75;;;3.20;90.00;;;;;;5109155;27;20229;-76
2021/03/06 04:05:12;;;;;;;14.10;5.85;;;3.10;90.00;;;;;;5107945;28;20297;-77
2021/03/06 04:07:44;;;;;;;16.60;5.40;;;3.10;89.90;;;;;;5108781;28;21191;-76
2021/03/06 04:10:15;;;;;;;17.52;5.80;;;3.10;90.30;;;;;;5104870;28;20688;-76
2021/03/06 04:12:43;;;;;;;11.60;5.55;;;3.10;90.00;;;;;;5108924;28;20213;-76
2021/03/06 04:15:13;;;;;;;15.75;5.78;;;3.10;90.00;;;;;;5108135;27;20201;-77
2021/03/06 04:17:48;;;;;;;14.65;5.32;;;3.10;90.00;;;;;;5108507;28;20308;-78
2021/03/06 04:20:18;;;;;;;18.23;6.13;;;3.10;90.40;;;;;;5107778;28;20232;-77
2021/03/06 04:22:45;;;;;;;13.00;5.70;;;3.10;90.10;;;;;;5106252;28;20207;-77
2021/03/06 04:25:13;;;;;;;13.38;5.80;;;3.10;90.10;;;;;;5108306;28;20637;-77
2021/03/06 04:27:40;;;;;;;12.98;5.50;;;3.00;90.00;;;;;;5109661;28;20276;-79
2021/03/06 04:30:09;;;;;;;13.50;5.40;;;3.00;90.00;;;;;;5106036;28;20228;-78
2021/03/06 04:32:40;;;;;;;14.02;5.80;;;3.00;90.00;;;;;;5108373;28;20205;-78
2021/03/06 04:35:12;;;;;;;17.25;5.95;;;3.00;90.20;;;;;;5107799;28;20204;-78
2021/03/06 04:37:42;;;;;;;16.83;5.95;;;3.00;90.10;;;;;;5108441;28;20780;-77
2021/03/06 04:40:12;;;;;;;13.70;5.30;;;2.90;90.10;;;;;;5108237;28;20692;-78
2021/03/06 04:42:43;;;;;;;15.82;6.07;;;2.90;90.10;;;;;;5107609;28;20197;-77
2021/03/06 04:45:11;;;;;;;14.93;6.00;;;2.90;90.20;;;;;;5103920;28;20698;-78
2021/03/06 04:47:40;;;;;;;19.15;5.93;;;2.90;90.20;;;;;;5118701;27;20211;-77
2021/03/06 04:50:10;;;;;;;16.98;6.20;;;2.90;90.10;;;;;;5107259;28;20285;-77
2021/03/06 04:52:37;;;;;;;16.10;5.60;;;2.80;90.10;;;;;;5108527;28;20203;-77
2021/03/06 04:55:05;;;;;;;17.08;5.93;;;2.80;90.20;;;;;;5109688;28;20251;-77
2021/03/06 04:57:33;;;;;;;14.63;5.85;;;2.70;90.20;;;;;;5117915;27;20200;-77
2021/03/06 05:00:00;;;;;;;13.02;5.75;;;2.80;90.30;;;;;;5106914;28;20213;-76
2021/03/06 05:02:27;;;;;;;13.50;5.68;;;2.70;90.30;;;;;;5107399;28;20220;-76
2021/03/06 05:04:54;;;;;;;14.85;5.40;;;2.70;90.30;;;;;;5106311;27;20201;-76
2021/03/06 05:07:21;;;;;;;18.00;6.15;;;2.80;90.30;;;;;;5109060;28;20197;-76
2021/03/06 05:09:48;;;;;;;15.23;6.05;;;2.80;90.30;;;;;;5107942;28;20216;-76
2021/03/06 05:12:14;;;;;;;24.05;6.13;;;2.80;90.40;;;;;;5106652;28;20213;-76
2021/03/06 05:14:43;;;;;;;10.40;5.35;;;2.70;90.30;;;;;;5104707;28;20225;-78
2021/03/06 05:17:13;;;;;;;14.57;5.85;;;2.70;90.30;;;;;;5107896;28;20200;-76
2021/03/06 05:19:39;;;;;;;11.85;5.32;;;2.70;90.30;;;;;;5106261;28;20203;-79
2021/03/06 05:22:07;;;;;;;13.32;5.72;;;2.70;90.30;;;;;;5108699;28;20258;-80
2021/03/06 05:24:35;;;;;;;9.93;5.25;;;2.70;90.30;;;;;;5103176;28;20266;-81
2021/03/06 05:27:04;;;;;;;16.98;6.28;;;2.60;90.30;;;;;;5105121;28;20201;-79
2021/03/06 05:29:31;;;;;;;15.55;5.97;;;2.50;90.30;;;;;;5105446;28;20235;-79
2021/03/06 05:31:58;;;;;;;12.75;5.97;;;2.60;90.40;;;;;;5106001;28;20209;-80
2021/03/06 05:34:24;;;;;;;15.80;5.95;;;2.50;90.50;;;;;;5110818;28;20222;-79
2021/03/06 05:36:52;;;;;;;13.45;6.20;;;2.50;90.60;;;;;;5108404;28;20893;-81
2021/03/06 05:39:19;;;;;;;14.80;6.20;;;2.50;90.60;;;;;;5107023;28;20205;-80
2021/03/06 05:41:48;;;;;;;15.95;6.03;;;2.50;90.60;;;;;;5112204;28;20205;-78
2021/03/06 05:44:15;;;;;;;17.95;5.90;;;2.50;90.60;;;;;;5109895;28;20205;-77
2021/03/06 05:46:46;;;;;;;14.15;6.22;;;2.50;90.60;;;;;;5112630;28;20205;-77
2021/03/06 05:49:14;;;;;;;16.77;5.80;;;2.50;90.70;;;;;;5109377;28;20205;-77
2021/03/06 05:51:42;;;;;;;12.63;5.80;;;2.50;90.80;;;;;;5111726;28;20209;-77
2021/03/06 05:54:10;;;;;;;12.75;5.70;;;2.40;90.70;;;;;;5109866;28;20205;-78
2021/03/06 05:56:40;;;;;;;11.75;5.68;;;2.40;90.70;;;;;;5112052;28;20563;-77
2021/03/06 05:59:09;;;;;;;11.43;5.85;;;2.40;90.80;;;;;;5109520;28;20197;-79
2021/03/06 06:01:38;;;;;;;9.73;5.82;;;2.40;90.80;;;;;;5111461;28;20229;-75
2021/03/06 06:04:05;;;;;;;11.45;5.70;;;2.40;90.80;;;;;;5111214;28;20295;-77
2021/03/06 06:06:33;;;;;;;15.90;6.22;;;2.40;90.90;;;;;;5113111;28;20194;-80
2021/03/06 06:09:00;;;;;;;18.83;6.53;;;2.40;90.90;;;;;;5109903;28;20213;-76
2021/03/06 06:11:28;;;;;;;18.05;6.18;;;2.40;91.00;;;;;;5113063;28;20646;-79
2021/03/06 06:13:55;;;;;;;22.83;6.70;;;2.40;91.00;;;;;;5112224;28;20205;-78
2021/03/06 06:16:24;;;;;;;17.70;6.97;;;2.40;91.00;;;;;;5111182;28;20292;-79
2021/03/06 06:18:54;;;;;;;16.08;5.82;;;2.40;91.10;;;;;;5112622;28;20538;-77
2021/03/06 06:21:46;;;;;;;14.88;6.40;;;2.40;91.10;;;;;;5110595;28;20216;-78
2021/03/06 06:24:14;;;;;;;18.80;6.03;;;2.40;91.10;;;;;;5107647;28;20212;-75
2021/03/06 06:26:51;;;;;;;18.17;7.07;;;2.40;91.10;;;;;;5113538;28;20201;-79
2021/03/06 06:29:20;;;;;;;20.95;6.47;;;2.40;91.20;;;;;;5107074;28;20288;-77
2021/03/06 06:31:55;;;;;;;15.63;6.10;;;2.40;91.20;;;;;;5104807;28;20201;-78
2021/03/06 06:34:25;;;;;;;18.17;6.47;;;2.40;91.20;;;;;;5108776;28;20201;-79
2021/03/06 06:36:52;;;;;;;21.63;6.03;;;2.40;91.20;;;;;;5111763;28;20271;-77
2021/03/06 06:39:28;;;;;;;16.45;6.10;;;2.40;91.30;;;;;;5106144;28;20297;-78
2021/03/06 06:41:57;;;;;;;20.42;6.80;;;2.40;91.30;;;;;;5106403;28;20217;-79
2021/03/06 06:44:27;;;;;;;22.48;6.57;;;2.40;91.30;;;;;;5105140;28;20209;-79
2021/03/06 06:46:57;;;;;;;14.10;6.35;;;2.40;91.40;;;;;;5107320;28;20209;-79
2021/03/06 06:49:27;;;;;;;12.25;5.97;;;2.40;91.40;;;;;;5102769;28;20213;-78
2021/03/06 06:52:01;;;;;;;17.20;6.15;;;2.40;91.40;;;;;;5109633;28;20201;-78
2021/03/06 06:54:37;;;;;;;11.90;5.70;;;2.40;91.40;;;;;;5106340;28;20228;-79
2021/03/06 06:57:11;;;;;;;10.90;6.55;;;2.50;91.50;;;;;;5106994;28;20261;-77
2021/03/06 06:59:41;;;;;;;18.63;6.40;;;2.50;91.50;;;;;;5106445;28;20185;-77
2021/03/06 07:02:09;;;;;;;15.60;6.85;;;2.50;91.50;;;;;;5108576;28;20217;-79
2021/03/06 07:04:52;;;;;;;17.95;7.85;;;2.50;91.60;;;;;;5105234;28;20197;-79
2021/03/06 07:07:26;;;;;;;15.05;7.78;;;2.60;91.60;;;;;;5104943;28;20228;-79
2021/03/06 07:10:14;;;;;;;20.13;7.55;;;2.60;91.60;;;;;;5104929;28;20263;-79
2021/03/06 07:12:44;;;;;;;18.75;7.55;;;2.60;91.70;;;;;;5105761;28;20300;-78
2021/03/06 07:15:18;;;;;;;21.63;8.30;;;2.60;91.80;;;;;;5109955;28;20286;-77
2021/03/06 07:17:48;;;;;;;22.17;8.15;;;2.60;91.80;;;;;;5110754;28;20196;-77
2021/03/06 07:20:38;;;;;;;23.48;9.35;;;2.60;91.90;;;;;;5107093;28;20280;-78
2021/03/06 07:23:31;;;;;;;26.25;10.45;;;2.70;92.00;;;;;;5108998;28;20193;-77
2021/03/06 07:26:00;;;;;;;20.17;8.77;;;2.70;92.00;;;;;;5114762;27;20208;-77
2021/03/06 07:28:30;;;;;;;18.98;8.45;;;2.80;92.10;;;;;;5105768;28;20712;-78
2021/03/06 07:30:57;;;;;;;19.83;8.93;;;2.80;92.20;;;;;;5109481;28;20209;-77
2021/03/06 07:33:27;;;;;;;22.25;9.07;;;2.80;92.20;;;;;;5108923;28;20209;-77
2021/03/06 07:36:00;;;;;;;29.75;9.10;;;2.80;92.20;;;;;;5124317;27;20213;-78
2021/03/06 07:38:28;;;;;;;21.45;9.27;;;2.90;92.30;;;;;;5105085;28;20229;-78
2021/03/06 07:40:59;;;;;;;22.17;10.13;;;2.90;92.30;;;;;;5108145;28;20216;-76
2021/03/06 07:43:53;;;;;;;27.38;10.63;;;3.00;92.40;;;;;;5107567;28;20242;-78
2021/03/06 07:46:25;;;;;;;21.90;9.27;;;3.10;92.60;;;;;;5110163;28;20217;-78
2021/03/06 07:48:57;;;;;;;19.25;9.20;;;3.10;92.70;;;;;;5106513;28;20221;-80
2021/03/06 07:51:31;;;;;;;19.75;8.93;;;3.20;92.80;;;;;;5109754;28;20209;-80
2021/03/06 07:54:04;;;;;;;19.75;8.65;;;3.20;92.90;;;;;;5118476;27;20201;-80
2021/03/06 07:56:32;;;;;;;22.65;9.32;;;3.30;93.00;;;;;;5109130;28;20664;-80
2021/03/06 07:59:02;;;;;;;26.70;8.77;;;3.40;93.20;;;;;;5103658;28;20198;-79
2021/03/06 08:01:31;;;;;;;18.17;9.25;;;3.50;93.70;;;;;;5107436;28;21408;-80
2021/03/06 08:03:59;;;;;;;15.93;8.15;;;3.60;93.50;;;;;;5106100;28;20194;-80
2021/03/06 08:06:29;;;;;;;31.30;14.07;;;3.70;93.60;;;;;;5108452;28;20212;-80
2021/03/06 08:09:07;;;;;;;36.03;14.00;;;3.80;93.70;;;;;;5107581;28;20205;-80
2021/03/06 08:11:49;;;;;;;25.75;9.68;;;3.80;93.80;;;;;;5104877;28;21258;-78
2021/03/06 08:14:31;;;;;;;25.95;8.70;;;3.90;94.00;;;;;;5104554;28;20201;-80
2021/03/06 08:16:57;;;;;;;23.58;9.88;;;4.00;94.10;;;;;;5108418;28;20216;-78
2021/03/06 08:19:26;;;;;;;15.85;9.18;;;4.10;94.30;;;;;;5109106;28;20197;-79
2021/03/06 08:21:54;;;;;;;21.42;9.55;;;4.20;94.50;;;;;;5104978;28;20529;-81
2021/03/06 08:24:29;;;;;;;15.80;9.43;;;4.20;94.60;;;;;;5118890;27;20292;-78
2021/03/06 08:27:14;;;;;;;21.20;9.25;;;4.30;94.80;;;;;;5106265;28;20296;-79
2021/03/06 08:29:41;;;;;;;52.47;28.80;;;4.40;95.20;;;;;;5107454;28;20458;-79
2021/03/06 08:32:14;;;;;;;28.63;15.65;;;4.70;97.70;;;;;;5103346;28;20420;-79
2021/03/06 08:34:48;;;;;;;26.40;16.20;;;5.10;98.00;;;;;;5106133;28;20514;-78
2021/03/06 08:37:35;;;;;;;22.42;12.75;;;5.40;97.80;;;;;;5105972;28;20516;-80
2021/03/06 08:40:07;;;;;;;19.95;9.85;;;5.60;97.30;;;;;;5123436;27;20421;-78
2021/03/06 08:42:37;;;;;;;14.38;8.40;;;5.80;97.00;;;;;;5102603;27;22543;-78
2021/03/06 08:45:08;;;;;;;17.43;8.50;;;5.90;96.80;;;;;;5108037;28;20420;-80
2021/03/06 08:47:36;;;;;;;14.00;7.45;;;6.10;96.70;;;;;;5107467;27;20502;-80
2021/03/06 08:50:07;;;;;;;18.73;8.38;;;6.20;96.50;;;;;;5106837;28;20416;-79
2021/03/06 08:52:35;;;;;;;14.82;7.15;;;6.30;96.40;;;;;;5107032;28;20551;-79
2021/03/06 08:55:02;;;;;;;16.30;5.90;;;6.40;96.00;;;;;;5106224;28;20426;-79
2021/03/06 08:57:31;;;;;;;14.20;6.32;;;6.50;95.60;;;;;;5102718;28;20424;-81
2021/03/06 08:59:59;;;;;;;13.57;5.55;;;6.50;95.40;;;;;;5106884;28;20507;-79
2021/03/06 09:02:34;;;;;;;11.65;5.43;;;6.60;95.10;;;;;;5106654;28;20952;-78
2021/03/06 09:05:08;;;;;;;13.93;5.43;;;6.70;94.90;;;;;;5106354;28;20481;-78
2021/03/06 09:07:38;;;;;;;12.27;4.37;;;6.80;94.40;;;;;;5106333;28;20784;-80
2021/03/06 09:10:23;;;;;;;12.13;3.40;;;6.90;93.90;;;;;;5106744;28;20424;-79
2021/03/06 09:12:52;;;;;;;12.95;3.60;;;7.00;92.40;;;;;;5106669;28;20859;-78
2021/03/06 09:15:34;;;;;;;12.88;3.97;;;7.10;92.20;;;;;;5105681;28;20428;-79
2021/03/06 09:18:01;;;;;;;12.00;4.25;;;7.30;92.00;;;;;;5106619;28;20899;-80
2021/03/06 09:20:31;;;;;;;11.77;3.67;;;7.30;92.10;;;;;;5105915;28;20472;-79
2021/03/06 09:22:58;;;;;;;12.43;3.38;;;7.50;91.50;;;;;;5103764;28;20429;-79
2021/03/06 09:25:30;;;;;;;14.17;3.60;;;7.50;90.70;;;;;;5105361;28;20434;-79
2021/03/06 09:27:57;;;;;;;9.85;3.60;;;7.60;90.50;;;;;;5102531;28;20420;-79
2021/03/06 09:30:26;;;;;;;11.07;3.10;;;7.60;90.00;;;;;;5106860;28;20834;-80
2021/03/06 09:32:54;;;;;;;10.80;2.95;;;7.70;89.40;;;;;;5105419;28;20201;-78
2021/03/06 09:35:22;;;;;;;14.27;3.95;;;7.40;90.30;;;;;;5106911;28;20201;-80
2021/03/06 09:38:05;;;;;;;7.97;2.65;;;7.10;90.80;;;;;;5103109;28;20209;-78
2021/03/06 09:40:41;;;;;;;7.45;1.80;;;7.00;91.10;;;;;;5107054;28;20596;-80
2021/03/06 09:43:09;;;;;;;7.15;1.70;;;6.90;91.20;;;;;;5119029;28;20208;-80
2021/03/06 09:45:36;;;;;;;12.77;1.90;;;6.90;91.20;;;;;;5105529;28;20244;-81
2021/03/06 09:48:11;;;;;;;6.00;1.70;;;6.90;91.10;;;;;;5106990;28;20201;-79
2021/03/06 09:50:40;;;;;;;13.90;2.00;;;6.90;91.10;;;;;;5106695;28;20205;-79
2021/03/06 09:53:24;;;;;;;7.53;1.60;;;6.90;91.00;;;;;;5105366;28;20197;-81
2021/03/06 09:56:06;;;;;;;4.65;1.77;;;6.90;90.90;;;;;;5106489;28;20205;-79
2021/03/06 09:58:33;;;;;;;6.53;1.50;;;6.90;90.70;;;;;;5104354;28;20201;-79
2021/03/06 10:01:21;;;;;;;7.10;1.70;;;7.00;90.60;;;;;;5107255;28;20732;-80
2021/03/06 10:03:49;;;;;;;6.90;1.95;;;6.90;90.30;;;;;;5101917;28;20918;-79
2021/03/06 10:06:19;;;;;;;3.70;1.33;;;6.90;90.20;;;;;;5108646;28;20207;-79
2021/03/06 10:08:51;;;;;;;4.90;1.60;;;7.00;90.00;;;;;;5105849;28;20209;-80
2021/03/06 10:11:18;;;;;;;3.78;1.20;;;6.90;89.60;;;;;;5106712;28;20595;-80
2021/03/06 10:13:50;;;;;;;4.68;1.10;;;7.00;89.10;;;;;;5106604;28;20221;-80
2021/03/06 10:16:17;;;;;;;6.13;0.90;;;7.00;88.30;;;;;;5106626;28;20210;-80
2021/03/06 10:18:44;;;;;;;2.88;0.85;;;7.00;87.40;;;;;;5107130;28;20241;-79
2021/03/06 10:21:14;;;;;;;2.25;0.98;;;7.00;86.60;;;;;;5105618;28;20280;-81
2021/03/06 10:23:41;;;;;;;2.10;0.70;;;7.00;85.50;;;;;;5106128;28;20225;-80
2021/03/06 10:26:17;;;;;;;3.78;1.00;;;7.00;84.70;;;;;;5104504;28;20201;-80
2021/03/06 10:28:44;;;;;;;2.38;1.33;;;7.10;84.00;;;;;;5109182;28;20208;-79
2021/03/06 10:31:28;;;;;;;4.90;2.10;;;7.10;83.50;;;;;;5108794;28;20262;-80
2021/03/06 10:33:59;;;;;;;3.15;1.40;;;7.10;82.90;;;;;;5111364;28;20285;-80
2021/03/06 10:36:26;;;;;;;5.93;1.30;;;7.20;82.60;;;;;;5109996;28;20209;-81
2021/03/06 10:39:17;;;;;;;2.55;0.93;;;7.20;82.20;;;;;;5109371;28;20215;-78
2021/03/06 10:41:45;;;;;;;1.85;1.10;;;7.30;81.90;;;;;;5110024;28;20332;-80
2021/03/06 10:44:12;;;;;;;3.63;1.58;;;7.30;81.40;;;;;;5106870;28;20254;-81
2021/03/06 10:46:39;;;;;;;3.60;0.88;;;7.40;81.10;;;;;;5110242;28;20216;-81
2021/03/06 10:49:08;;;;;;;5.30;1.33;;;7.40;80.50;;;;;;5109614;28;20246;-79
2021/03/06 10:51:44;;;;;;;5.05;1.55;;;7.50;80.00;;;;;;5109566;28;20780;-79
2021/03/06 10:54:12;;;;;;;3.75;1.40;;;7.50;79.40;;;;;;5109420;28;20288;-79
2021/03/06 10:56:40;;;;;;;5.95;1.48;;;7.50;79.00;;;;;;5110050;28;20246;-80
2021/03/06 10:59:09;;;;;;;3.08;1.48;;;7.50;78.70;;;;;;5107640;28;20738;-78
2021/03/06 11:01:46;;;;;;;4.75;1.35;;;7.50;78.30;;;;;;5109448;28;20217;-80
2021/03/06 11:04:26;;;;;;;4.03;1.02;;;7.50;78.10;;;;;;5110056;28;20201;-80
2021/03/06 11:06:55;;;;;;;2.63;0.70;;;7.50;78.00;;;;;;5110660;28;20673;-79
2021/03/06 11:09:25;;;;;;;3.22;0.60;;;7.60;77.70;;;;;;5109403;28;20658;-80
2021/03/06 11:11:52;;;;;;;4.45;1.02;;;7.60;77.20;;;;;;5110736;28;20205;-79
2021/03/06 11:14:26;;;;;;;2.45;1.10;;;7.60;76.80;;;;;;5109269;27;20207;-80
2021/03/06 11:16:55;;;;;;;3.90;1.02;;;7.60;76.30;;;;;;5109805;28;20310;-81
2021/03/06 11:19:22;;;;;;;4.47;1.10;;;7.60;76.10;;;;;;5120783;27;20242;-80
2021/03/06 11:21:50;;;;;;;3.30;1.17;;;7.60;75.80;;;;;;5110422;28;20196;-80
2021/03/06 11:24:17;;;;;;;3.72;1.00;;;7.70;75.50;;;;;;5108607;27;20204;-80
2021/03/06 11:26:43;;;;;;;2.63;1.25;;;7.70;75.30;;;;;;5109274;28;20552;-79
2021/03/06 11:29:10;;;;;;;8.27;1.85;;;7.80;75.20;;;;;;5108903;27;20670;-80
2021/03/06 11:31:38;;;;;;;4.65;1.38;;;7.90;75.10;;;;;;5110889;28;20220;-82
2021/03/06 11:34:04;;;;;;;5.70;2.25;;;7.90;74.80;;;;;;5109871;28;20207;-81
2021/03/06 11:36:31;;;;;;;4.88;1.80;;;8.00;74.80;;;;;;5105213;28;20247;-80
2021/03/06 11:38:58;;;;;;;3.45;1.10;;;8.00;74.70;;;;;;5107298;28;20208;-78
2021/03/06 11:41:24;;;;;;;5.95;1.15;;;8.00;74.20;;;;;;5107716;28;20201;-80
2021/03/06 11:43:51;;;;;;;8.63;3.25;;;8.10;73.80;;;;;;5111102;28;20222;-80
2021/03/06 11:46:18;;;;;;;2.58;1.00;;;8.10;73.20;;;;;;5109129;28;20214;-79
2021/03/06 11:48:45;;;;;;;2.60;1.00;;;8.20;73.00;;;;;;5109617;28;20280;-81
2021/03/06 11:51:12;;;;;;;3.15;1.20;;;8.30;72.80;;;;;;5107730;28;20241;-80
2021/03/06 11:53:39;;;;;;;3.00;1.30;;;8.40;72.60;;;;;;5108435;28;20209;-76
2021/03/06 11:56:06;;;;;;;7.70;4.00;;;8.50;72.40;;;;;;5108514;28;21296;-76
2021/03/06 11:58:34;;;;;;;4.88;1.88;;;8.60;72.20;;;;;;5117899;27;20723;-75
2021/03/06 12:01:01;;;;;;;4.20;1.25;;;8.70;72.20;;;;;;5104792;28;20649;-74
2021/03/06 12:03:27;;;;;;;2.05;1.20;;;8.70;71.20;;;;;;5105392;28;20212;-76
2021/03/06 12:05:55;;;;;;;6.80;1.55;;;8.80;70.90;;;;;;5108673;28;20209;-77
2021/03/06 12:08:22;;;;;;;7.70;1.35;;;8.80;70.40;;;;;;5105621;28;20205;-74
2021/03/06 12:10:49;;;;;;;2.88;1.20;;;8.80;70.90;;;;;;5103756;28;20218;-75
2021/03/06 12:13:15;;;;;;;3.00;1.10;;;8.90;69.80;;;;;;5107168;28;20205;-75
2021/03/06 12:15:42;;;;;;;2.42;1.23;;;8.90;69.50;;;;;;5106595;28;20704;-76
2021/03/06 12:18:09;;;;;;;4.45;1.10;;;8.90;69.20;;;;;;5107525;28;20649;-75
2021/03/06 12:20:36;;;;;;;3.58;1.13;;;8.90;69.10;;;;;;5107379;28;20270;-75
2021/03/06 12:23:04;;;;;;;3.55;1.42;;;8.90;69.00;;;;;;5103746;28;20201;-76
2021/03/06 12:25:30;;;;;;;4.28;1.38;;;8.90;68.80;;;;;;5104799;28;20232;-75
2021/03/06 12:27:57;;;;;;;4.72;1.20;;;9.00;68.70;;;;;;5106188;28;20665;-76
2021/03/06 12:30:28;;;;;;;4.18;1.30;;;9.00;68.30;;;;;;5106882;28;20205;-75
2021/03/06 12:32:54;;;;;;;2.90;1.20;;;9.00;67.90;;;;;;5105866;28;20216;-74
2021/03/06 12:35:22;;;;;;;3.83;1.50;;;9.00;68.20;;;;;;5102836;28;20198;-77
2021/03/06 12:37:50;;;;;;;4.80;1.75;;;8.90;67.70;;;;;;5108357;27;20208;-76
2021/03/06 12:40:23;;;;;;;4.88;1.60;;;8.90;67.70;;;;;;5105007;28;20198;-75
2021/03/06 12:42:50;;;;;;;2.78;1.23;;;8.90;67.80;;;;;;5106604;28;20553;-76
2021/03/06 12:45:17;;;;;;;5.35;1.10;;;9.00;67.90;;;;;;5105695;28;20201;-77
2021/03/06 12:47:45;;;;;;;3.65;1.13;;;9.00;67.70;;;;;;5102627;28;20233;-77
2021/03/06 12:50:12;;;;;;;3.63;1.35;;;9.00;67.10;;;;;;5100994;28;20213;-76
2021/03/06 12:52:39;;;;;;;9.10;4.00;;;8.90;66.80;;;;;;5099796;28;20224;-76
2021/03/06 12:55:24;;;;;;;6.18;3.05;;;8.90;66.90;;;;;;5104938;28;20201;-77
2021/03/06 12:57:53;;;;;;;1.83;1.30;;;9.00;67.00;;;;;;5107253;28;20193;-76
2021/03/06 13:00:21;;;;;;;5.57;1.40;;;8.90;66.90;;;;;;5107400;28;20257;-75
2021/03/06 13:02:48;;;;;;;4.13;1.17;;;8.90;66.70;;;;;;5104839;28;20228;-76
2021/03/06 13:05:18;;;;;;;3.90;1.10;;;8.90;66.50;;;;;;5103118;28;20201;-76
2021/03/06 13:07:44;;;;;;;3.80;1.50;;;8.90;66.50;;;;;;5104401;28;20258;-78